createdAt,value
2023-05-21T00:00:17.930Z,16.50
2023-05-21T00:01:17.914Z,16.52
2023-05-21T00:02:17.940Z,16.50
2023-05-21T00:03:17.946Z,16.52
2023-05-21T00:04:17.858Z,16.52
2023-05-21T00:05:17.842Z,16.52
2023-05-21T00:06:17.851Z,16.49
2023-05-21T00:07:17.812Z,16.50
2023-05-21T00:08:17.791Z,16.50
2023-05-21T00:09:17.767Z,16.50
2023-05-21T00:10:17.792Z,16.52
2023-05-21T00:11:17.757Z,16.50
2023-05-21T00:12:17.765Z,16.50
2023-05-21T00:13:17.742Z,16.49
2023-05-21T00:14:17.729Z,16.49
2023-05-21T00:15:17.718Z,16.50
2023-05-21T00:16:17.758Z,16.49
2023-05-21T00:17:17.680Z,16.49
2023-05-21T00:18:17.661Z,16.48
2023-05-21T00:19:17.684Z,16.48
2023-05-21T00:20:17.651Z,16.48
2023-05-21T00:21:17.627Z,16.48
2023-05-21T00:22:17.621Z,16.45
2023-05-21T00:23:17.619Z,16.45
2023-05-21T00:24:17.592Z,16.45
2023-05-21T00:25:17.590Z,16.45
2023-05-21T00:26:17.566Z,16.45
2023-05-21T00:27:17.554Z,16.42
2023-05-21T00:28:17.544Z,16.42
2023-05-21T00:29:17.539Z,16.41
2023-05-21T00:30:17.517Z,16.42
2023-05-21T00:31:17.567Z,16.41
2023-05-21T00:32:17.484Z,16.42
2023-05-21T00:33:17.487Z,16.41
2023-05-21T00:34:17.477Z,16.41
2023-05-21T00:35:17.447Z,16.40
2023-05-21T00:36:17.432Z,16.38
2023-05-21T00:37:17.410Z,16.37
2023-05-21T00:38:17.405Z,16.37
2023-05-21T00:39:17.393Z,16.34
2023-05-21T00:40:17.371Z,16.34
2023-05-21T00:41:17.361Z,16.34
2023-05-21T00:42:17.337Z,16.34
2023-05-21T00:43:17.353Z,16.34
2023-05-21T00:44:17.320Z,16.35
2023-05-21T00:45:17.314Z,16.35
2023-05-21T00:46:17.352Z,16.35
2023-05-21T00:47:17.288Z,16.35
2023-05-21T00:48:17.274Z,16.34
2023-05-21T00:49:17.269Z,16.33
2023-05-21T00:50:17.242Z,16.33
2023-05-21T00:51:17.249Z,16.34
2023-05-21T00:52:17.231Z,16.34
2023-05-21T00:53:17.203Z,16.34
2023-05-21T00:54:17.193Z,16.34
2023-05-21T00:55:17.197Z,16.35
2023-05-21T00:56:17.188Z,16.37
2023-05-21T00:57:17.156Z,16.37
2023-05-21T00:58:17.131Z,16.34
2023-05-21T00:59:17.129Z,16.35
2023-05-21T01:00:17.129Z,16.37
2023-05-21T01:01:17.145Z,16.37
2023-05-21T01:02:17.103Z,16.38
2023-05-21T01:03:17.193Z,16.38
2023-05-21T01:04:17.065Z,16.38
2023-05-21T01:05:17.063Z,16.41
2023-05-21T01:06:17.046Z,16.40
2023-05-21T01:07:17.026Z,16.40
2023-05-21T01:08:17.003Z,16.40
2023-05-21T01:09:17.002Z,16.40
2023-05-21T01:10:16.985Z,16.40
2023-05-21T01:11:16.986Z,16.40
2023-05-21T01:12:16.952Z,16.38
2023-05-21T01:13:16.966Z,16.40
2023-05-21T01:14:16.943Z,16.35
2023-05-21T01:15:16.930Z,16.34
2023-05-21T01:16:16.956Z,16.34
2023-05-21T01:17:16.895Z,16.35
2023-05-21T01:18:16.900Z,16.35
2023-05-21T01:19:16.962Z,16.33
2023-05-21T01:20:16.867Z,16.30
2023-05-21T01:21:16.844Z,16.30
2023-05-21T01:22:16.817Z,16.26
2023-05-21T01:23:16.810Z,16.27
2023-05-21T01:24:16.802Z,16.27
2023-05-21T01:25:16.812Z,16.27
2023-05-21T01:26:16.791Z,16.26
2023-05-21T01:27:16.794Z,16.26
2023-05-21T01:28:16.755Z,16.26
2023-05-21T01:29:16.740Z,16.27
2023-05-21T01:30:16.742Z,16.27
2023-05-21T01:31:16.714Z,16.27
2023-05-21T01:32:16.713Z,16.27
2023-05-21T01:33:16.748Z,16.27
2023-05-21T01:34:16.688Z,16.26
2023-05-21T01:35:16.656Z,16.27
2023-05-21T01:36:16.645Z,16.27
2023-05-21T01:37:16.630Z,16.31
2023-05-21T01:38:16.625Z,16.27
2023-05-21T01:39:16.642Z,16.31
2023-05-21T01:40:16.608Z,16.33
2023-05-21T01:41:16.581Z,16.34
2023-05-21T01:42:16.577Z,16.35
2023-05-21T01:43:16.556Z,16.35
2023-05-21T01:44:16.565Z,16.35
2023-05-21T01:45:16.532Z,16.37
2023-05-21T01:46:16.553Z,16.37
2023-05-21T01:47:16.505Z,16.35
2023-05-21T01:48:16.500Z,16.37
2023-05-21T01:49:16.504Z,16.37
2023-05-21T01:50:16.483Z,16.37
2023-05-21T01:51:16.455Z,16.37
2023-05-21T01:52:16.461Z,16.40
2023-05-21T01:53:16.439Z,16.41
2023-05-21T01:54:16.421Z,16.40
2023-05-21T01:55:16.404Z,16.42
2023-05-21T01:56:16.385Z,16.40
2023-05-21T01:57:16.380Z,16.44
2023-05-21T01:58:16.368Z,16.42
2023-05-21T01:59:16.342Z,16.44
2023-05-21T02:00:16.345Z,16.42
2023-05-21T02:01:16.316Z,16.44
2023-05-21T02:02:16.334Z,16.44
2023-05-21T02:03:23.456Z,16.45
2023-05-21T02:04:16.289Z,16.48
2023-05-21T02:05:16.280Z,16.50
2023-05-21T02:06:16.256Z,16.48
2023-05-21T02:07:16.254Z,16.49
2023-05-21T02:08:16.260Z,16.48
2023-05-21T02:09:16.212Z,16.49
2023-05-21T02:10:16.219Z,16.50
2023-05-21T02:11:16.298Z,16.52
2023-05-21T02:12:16.191Z,16.52
2023-05-21T02:13:16.182Z,16.52
2023-05-21T02:14:16.160Z,16.52
2023-05-21T02:15:16.186Z,16.50
2023-05-21T02:16:16.187Z,16.50
2023-05-21T02:17:16.180Z,16.52
2023-05-21T02:18:16.183Z,16.52
2023-05-21T02:19:16.114Z,16.52
2023-05-21T02:20:16.170Z,16.52
2023-05-21T02:21:16.066Z,16.49
2023-05-21T02:22:16.063Z,16.48
2023-05-21T02:23:16.048Z,16.45
2023-05-21T02:24:16.032Z,16.44
2023-05-21T02:25:16.031Z,16.42
2023-05-21T02:26:16.015Z,16.42
2023-05-21T02:27:15.988Z,16.41
2023-05-21T02:28:15.988Z,16.42
2023-05-21T02:29:15.961Z,16.42
2023-05-21T02:30:15.964Z,16.41
2023-05-21T02:31:15.949Z,16.41
2023-05-21T02:32:15.948Z,16.41
2023-05-21T02:33:15.915Z,16.40
2023-05-21T02:34:15.953Z,16.40
2023-05-21T02:35:15.911Z,16.38
2023-05-21T02:36:15.886Z,16.37
2023-05-21T02:37:15.860Z,16.35
2023-05-21T02:38:15.853Z,16.34
2023-05-21T02:39:15.830Z,16.31
2023-05-21T02:40:15.836Z,16.31
2023-05-21T02:41:15.815Z,16.30
2023-05-21T02:42:15.793Z,16.31
2023-05-21T02:43:16.380Z,16.30
2023-05-21T02:44:15.779Z,16.30
2023-05-21T02:45:15.767Z,16.31
2023-05-21T02:46:15.766Z,16.30
2023-05-21T02:47:15.723Z,16.30
2023-05-21T02:48:15.710Z,16.31
2023-05-21T02:49:15.692Z,16.31
2023-05-21T02:50:15.708Z,16.31
2023-05-21T02:51:15.675Z,16.31
2023-05-21T02:52:15.663Z,16.27
2023-05-21T02:53:15.648Z,16.27
2023-05-21T02:54:15.652Z,16.30
2023-05-21T02:55:15.630Z,16.25
2023-05-21T02:56:15.610Z,16.26
2023-05-21T02:57:15.601Z,16.27
2023-05-21T02:58:15.581Z,16.26
2023-05-21T02:59:15.577Z,16.25
2023-05-21T03:00:15.552Z,16.25
2023-05-21T03:01:15.584Z,16.22
2023-05-21T03:02:15.625Z,16.22
2023-05-21T03:03:15.673Z,16.23
2023-05-21T03:04:15.502Z,16.23
2023-05-21T03:05:15.485Z,16.22
2023-05-21T03:06:15.471Z,16.23
2023-05-21T03:07:15.465Z,16.23
2023-05-21T03:08:15.462Z,16.25
2023-05-21T03:09:15.437Z,16.22
2023-05-21T03:10:15.444Z,16.22
2023-05-21T03:11:15.423Z,16.22
2023-05-21T03:12:15.434Z,16.22
2023-05-21T03:13:15.436Z,16.22
2023-05-21T03:14:15.387Z,16.22
2023-05-21T03:15:15.356Z,16.18
2023-05-21T03:16:15.362Z,16.20
2023-05-21T03:17:15.351Z,16.20
2023-05-21T03:18:15.405Z,16.16
2023-05-21T03:19:15.354Z,16.15
2023-05-21T03:20:15.305Z,16.15
2023-05-21T03:21:15.284Z,16.14
2023-05-21T03:22:15.263Z,16.14
2023-05-21T03:23:16.639Z,16.14
2023-05-21T03:24:15.247Z,16.14
2023-05-21T03:25:15.247Z,16.15
2023-05-21T03:26:15.217Z,16.12
2023-05-21T03:27:15.223Z,16.12
2023-05-21T03:28:15.204Z,16.12
2023-05-21T03:29:15.171Z,16.12
2023-05-21T03:30:15.174Z,16.12
2023-05-21T03:31:15.155Z,16.11
2023-05-21T03:32:15.354Z,16.14
2023-05-21T03:33:15.129Z,16.12
2023-05-21T03:34:15.122Z,16.14
2023-05-21T03:35:15.100Z,16.14
2023-05-21T03:36:15.097Z,16.12
2023-05-21T03:37:15.094Z,16.14
2023-05-21T03:38:15.076Z,16.12
2023-05-21T03:39:15.075Z,16.12
2023-05-21T03:40:15.048Z,16.12
2023-05-21T03:41:15.021Z,16.14
2023-05-21T03:42:15.030Z,16.14
2023-05-21T03:43:15.006Z,16.14
2023-05-21T03:44:15.008Z,16.12
2023-05-21T03:45:14.970Z,16.09
2023-05-21T03:46:15.026Z,16.07
2023-05-21T03:47:14.973Z,16.07
2023-05-21T03:48:14.935Z,16.07
2023-05-21T03:49:14.939Z,16.07
2023-05-21T04:02:24.857Z,16.12
2023-05-21T04:03:24.945Z,16.11
2023-05-21T04:04:24.750Z,16.11
2023-05-21T04:05:24.731Z,16.09
2023-05-21T04:06:24.693Z,16.07
2023-05-21T04:07:24.695Z,16.07
2023-05-21T04:08:24.683Z,16.07
2023-05-21T04:09:24.678Z,16.09
2023-05-21T04:10:24.657Z,16.07
2023-05-21T04:11:24.635Z,16.06
2023-05-21T04:12:24.619Z,16.07
2023-05-21T04:13:24.603Z,16.06
2023-05-21T04:14:33.317Z,16.06
2023-05-21T04:15:24.623Z,16.07
2023-05-21T04:16:24.753Z,16.09
2023-05-21T04:17:24.564Z,16.07
2023-05-21T04:18:24.543Z,16.09
2023-05-21T04:19:24.610Z,16.09
2023-05-21T04:20:24.531Z,16.09
2023-05-21T04:21:24.510Z,16.11
2023-05-21T04:22:24.500Z,16.09
2023-05-21T04:23:24.484Z,16.12
2023-05-21T04:24:24.476Z,16.12
2023-05-21T04:25:24.461Z,16.14
2023-05-21T04:26:24.431Z,16.15
2023-05-21T04:27:24.434Z,16.14
2023-05-21T04:28:24.411Z,16.12
2023-05-21T04:29:24.410Z,16.12
2023-05-21T04:30:24.393Z,16.14
2023-05-21T04:31:24.417Z,16.14
2023-05-21T04:32:24.400Z,16.15
2023-05-21T04:33:24.359Z,16.15
2023-05-21T04:34:24.334Z,16.16
2023-05-21T04:35:24.326Z,16.16
2023-05-21T04:36:24.304Z,16.18
2023-05-21T04:37:24.300Z,16.20
2023-05-21T04:38:24.281Z,16.22
2023-05-21T04:39:24.270Z,16.22
2023-05-21T04:40:24.267Z,16.22
2023-05-21T04:41:24.244Z,16.23
2023-05-21T04:42:24.237Z,16.25
2023-05-21T04:43:24.219Z,16.26
2023-05-21T04:44:24.214Z,16.26
2023-05-21T04:45:24.208Z,16.27
2023-05-21T04:46:24.183Z,16.31
2023-05-21T04:47:24.174Z,16.33
2023-05-21T04:48:24.163Z,16.31
2023-05-21T04:49:24.153Z,16.31
2023-05-21T04:50:24.128Z,16.34
2023-05-21T04:51:24.120Z,16.35
2023-05-21T04:52:24.109Z,16.35
2023-05-21T04:53:24.097Z,16.35
2023-05-21T04:54:24.074Z,16.35
2023-05-21T04:55:24.066Z,16.35
2023-05-21T04:56:24.044Z,16.37
2023-05-21T04:57:24.065Z,16.40
2023-05-21T04:58:24.024Z,16.42
2023-05-21T04:59:24.018Z,16.42
2023-05-21T05:00:24.001Z,16.45
2023-05-21T05:01:24.098Z,16.45
2023-05-21T05:02:24.000Z,16.48
2023-05-21T05:03:24.072Z,16.49
2023-05-21T05:04:23.939Z,16.52
2023-05-21T05:05:23.985Z,16.52
2023-05-21T05:06:23.949Z,16.53
2023-05-21T05:07:23.929Z,16.55
2023-05-21T05:08:23.990Z,16.56
2023-05-21T05:09:23.876Z,16.58
2023-05-21T05:10:23.866Z,16.60
2023-05-21T05:11:23.870Z,16.62
2023-05-21T05:12:23.840Z,16.65
2023-05-21T05:13:23.832Z,16.67
2023-05-21T05:14:23.813Z,16.68
2023-05-21T05:15:23.820Z,16.68
2023-05-21T05:16:23.857Z,16.70
2023-05-21T05:17:23.790Z,16.74
2023-05-21T05:18:23.757Z,16.74
2023-05-21T05:19:23.811Z,16.74
2023-05-21T05:20:23.768Z,16.74
2023-05-21T05:21:23.744Z,16.77
2023-05-21T05:22:23.713Z,16.77
2023-05-21T05:23:23.711Z,16.77
2023-05-21T05:24:23.690Z,16.78
2023-05-21T05:25:23.714Z,16.80
2023-05-21T05:26:23.681Z,16.81
2023-05-21T05:27:23.674Z,16.81
2023-05-21T05:28:23.675Z,16.85
2023-05-21T05:29:23.626Z,16.86
2023-05-21T05:30:23.631Z,16.89
2023-05-21T05:31:23.727Z,16.90
2023-05-21T05:32:23.645Z,16.92
2023-05-21T05:33:23.575Z,16.93
2023-05-21T05:34:23.579Z,16.96
2023-05-21T05:35:23.574Z,16.98
2023-05-21T05:36:23.527Z,16.96
2023-05-21T05:37:23.522Z,16.98
2023-05-21T05:38:23.547Z,16.98
2023-05-21T05:39:23.503Z,17.03
2023-05-21T05:40:23.481Z,17.06
2023-05-21T05:41:23.485Z,17.07
2023-05-21T05:42:23.454Z,17.11
2023-05-21T05:43:23.439Z,17.13
2023-05-21T05:44:23.437Z,17.15
2023-05-21T05:45:23.510Z,17.18
2023-05-21T05:46:23.437Z,17.20
2023-05-21T05:47:23.399Z,17.23
2023-05-21T05:48:23.375Z,17.25
2023-05-21T05:49:23.371Z,17.26
2023-05-21T05:50:23.359Z,17.28
2023-05-21T05:51:23.343Z,17.29
2023-05-21T05:52:23.317Z,17.33
2023-05-21T05:53:23.327Z,17.35
2023-05-21T05:54:23.305Z,17.36
2023-05-21T05:55:23.288Z,17.43
2023-05-21T05:56:23.275Z,17.44
2023-05-21T05:57:23.268Z,17.47
2023-05-21T05:58:23.262Z,17.48
2023-05-21T05:59:23.239Z,17.51
2023-05-21T06:00:23.227Z,17.53
2023-05-21T06:01:23.211Z,17.57
2023-05-21T06:02:23.324Z,17.62
2023-05-21T06:03:23.310Z,17.64
2023-05-21T06:04:23.181Z,17.67
2023-05-21T06:05:23.261Z,17.67
2023-05-21T06:06:23.151Z,17.70
2023-05-21T06:07:23.141Z,17.71
2023-05-21T06:08:23.117Z,17.76
2023-05-21T06:09:23.115Z,17.76
2023-05-21T06:10:23.100Z,17.81
2023-05-21T06:11:23.101Z,17.84
2023-05-21T06:12:23.076Z,17.84
2023-05-21T06:13:23.070Z,17.87
2023-05-21T06:14:23.052Z,17.91
2023-05-21T06:15:23.027Z,17.92
2023-05-21T06:16:23.164Z,17.97
2023-05-21T06:17:23.107Z,18.00
2023-05-21T06:18:22.991Z,18.02
2023-05-21T06:19:23.028Z,18.06
2023-05-21T06:20:22.968Z,18.07
2023-05-21T06:21:22.961Z,18.09
2023-05-21T06:22:24.921Z,18.10
2023-05-21T06:23:22.931Z,18.13
2023-05-21T06:24:22.904Z,18.15
2023-05-21T06:25:22.904Z,18.18
2023-05-21T06:26:22.901Z,18.18
2023-05-21T06:27:22.895Z,18.21
2023-05-21T06:28:22.848Z,18.22
2023-05-21T06:29:22.843Z,18.27
2023-05-21T06:30:22.832Z,18.29
2023-05-21T06:31:22.845Z,18.33
2023-05-21T06:32:22.877Z,18.33
2023-05-21T06:33:22.882Z,18.34
2023-05-21T06:34:22.778Z,18.37
2023-05-21T06:35:22.765Z,18.39
2023-05-21T06:36:22.780Z,18.42
2023-05-21T06:37:23.799Z,18.46
2023-05-21T06:38:22.722Z,18.49
2023-05-21T06:39:22.738Z,18.50
2023-05-21T06:40:22.728Z,18.54
2023-05-21T06:41:22.710Z,18.58
2023-05-21T06:42:22.709Z,18.61
2023-05-21T06:43:22.685Z,18.62
2023-05-21T06:44:22.657Z,18.64
2023-05-21T06:45:22.676Z,18.65
2023-05-21T06:46:22.722Z,18.67
2023-05-21T06:47:22.700Z,18.70
2023-05-21T06:48:22.600Z,18.74
2023-05-21T06:49:22.603Z,18.76
2023-05-21T06:50:22.580Z,18.80
2023-05-21T06:51:22.583Z,18.82
2023-05-21T06:52:22.537Z,18.83
2023-05-21T06:53:22.557Z,18.86
2023-05-21T06:54:22.609Z,18.90
2023-05-21T06:55:22.542Z,18.90
2023-05-21T06:56:22.499Z,18.92
2023-05-21T06:57:22.489Z,18.92
2023-05-21T06:58:22.476Z,18.92
2023-05-21T06:59:22.470Z,18.94
2023-05-21T07:00:22.448Z,18.95
2023-05-21T07:01:22.570Z,18.97
2023-05-21T07:02:22.465Z,18.98
2023-05-21T07:03:22.484Z,18.98
2023-05-21T07:04:22.407Z,19.02
2023-05-21T07:05:22.404Z,19.02
2023-05-21T07:06:22.375Z,19.06
2023-05-21T07:07:22.359Z,19.10
2023-05-21T07:08:22.342Z,19.11
2023-05-21T07:09:22.343Z,19.13
2023-05-21T07:10:22.325Z,19.14
2023-05-21T07:11:22.307Z,19.17
2023-05-21T07:12:22.282Z,19.21
2023-05-21T07:13:22.297Z,19.25
2023-05-21T07:14:22.269Z,19.28
2023-05-21T07:15:22.257Z,19.29
2023-05-21T07:16:22.264Z,19.31
2023-05-21T07:17:22.277Z,19.32
2023-05-21T07:18:22.226Z,19.35
2023-05-21T07:19:22.212Z,19.38
2023-05-21T07:20:22.185Z,19.40
2023-05-21T07:21:22.174Z,19.46
2023-05-21T07:22:22.153Z,19.46
2023-05-21T07:23:22.154Z,19.48
2023-05-21T07:24:22.131Z,19.53
2023-05-21T07:25:22.127Z,19.54
2023-05-21T07:26:22.112Z,19.57
2023-05-21T07:27:25.738Z,19.58
2023-05-21T07:28:22.080Z,19.60
2023-05-21T07:29:22.082Z,19.61
2023-05-21T07:30:22.068Z,19.63
2023-05-21T07:31:22.080Z,19.65
2023-05-21T07:32:22.063Z,19.68
2023-05-21T07:33:22.010Z,19.72
2023-05-21T07:34:22.000Z,19.72
2023-05-21T07:35:21.993Z,19.75
2023-05-21T07:36:21.976Z,19.76
2023-05-21T07:37:22.000Z,19.78
2023-05-21T07:38:21.942Z,19.80
2023-05-21T07:39:21.942Z,19.83
2023-05-21T07:40:21.930Z,19.84
2023-05-21T07:41:21.938Z,19.87
2023-05-21T07:42:21.908Z,19.90
2023-05-21T07:43:21.887Z,19.91
2023-05-21T07:44:21.872Z,19.93
2023-05-21T07:45:21.875Z,19.94
2023-05-21T07:46:21.930Z,19.97
2023-05-21T07:47:21.840Z,19.97
2023-05-21T07:48:21.828Z,19.98
2023-05-21T07:49:21.822Z,20.02
2023-05-21T07:50:21.805Z,20.05
2023-05-21T07:51:21.802Z,20.08
2023-05-21T07:52:21.829Z,20.09
2023-05-21T07:53:21.770Z,20.10
2023-05-21T07:54:21.741Z,20.10
2023-05-21T07:55:21.766Z,20.12
2023-05-21T07:56:21.736Z,20.15
2023-05-21T07:57:21.709Z,20.18
2023-05-21T07:58:21.691Z,20.20
2023-05-21T07:59:21.700Z,20.24
2023-05-21T08:00:21.674Z,20.28
2023-05-21T08:01:21.668Z,20.30
2023-05-21T08:02:21.826Z,20.33
2023-05-21T08:03:21.677Z,20.34
2023-05-21T08:04:21.704Z,20.38
2023-05-21T08:05:21.654Z,20.42
2023-05-21T08:06:21.594Z,20.43
2023-05-21T08:07:21.596Z,20.49
2023-05-21T08:08:21.579Z,20.53
2023-05-21T08:09:21.559Z,20.56
2023-05-21T08:10:21.570Z,20.59
2023-05-21T08:11:21.534Z,20.65
2023-05-21T08:12:21.530Z,20.66
2023-05-21T08:13:21.510Z,20.69
2023-05-21T08:14:21.522Z,20.71
2023-05-21T08:15:21.489Z,20.79
2023-05-21T08:16:21.532Z,20.83
2023-05-21T08:17:21.485Z,20.86
2023-05-21T08:18:21.443Z,20.90
2023-05-21T08:19:21.477Z,20.93
2023-05-21T08:20:21.425Z,20.95
2023-05-21T08:21:21.398Z,20.99
2023-05-21T08:22:21.395Z,20.99
2023-05-21T08:23:21.389Z,21.04
2023-05-21T08:24:21.391Z,21.02
2023-05-21T08:25:21.359Z,21.06
2023-05-21T08:26:21.345Z,21.06
2023-05-21T08:27:21.365Z,21.08
2023-05-21T08:28:21.331Z,21.06
2023-05-21T08:29:21.313Z,21.08
2023-05-21T08:30:21.349Z,21.13
2023-05-21T08:31:21.333Z,21.14
2023-05-21T08:32:21.292Z,21.19
2023-05-21T08:33:21.582Z,21.21
2023-05-21T08:34:21.251Z,21.23
2023-05-21T08:35:21.239Z,21.26
2023-05-21T08:36:21.227Z,21.30
2023-05-21T08:37:21.200Z,21.35
2023-05-21T08:38:21.209Z,21.39
2023-05-21T08:39:21.195Z,21.45
2023-05-21T08:40:21.222Z,21.50
2023-05-21T08:41:21.155Z,21.57
2023-05-21T08:42:32.878Z,21.61
2023-05-21T08:43:22.133Z,21.66
2023-05-21T08:44:21.118Z,21.74
2023-05-21T08:45:21.103Z,21.78
2023-05-21T08:46:21.119Z,21.83
2023-05-21T08:47:21.121Z,21.91
2023-05-21T08:48:21.078Z,21.95
2023-05-21T08:49:21.052Z,21.99
2023-05-21T08:50:21.078Z,22.06
2023-05-21T08:51:21.024Z,22.10
2023-05-21T08:52:21.055Z,22.12
2023-05-21T08:53:27.962Z,22.16
2023-05-21T08:54:21.989Z,22.22
2023-05-21T08:55:20.957Z,22.25
2023-05-21T08:56:20.948Z,22.27
2023-05-21T08:57:20.950Z,22.31
2023-05-21T08:58:20.929Z,22.35
2023-05-21T08:59:20.911Z,22.39
2023-05-21T09:00:20.899Z,22.43
2023-05-21T09:01:21.234Z,22.46
2023-05-21T09:02:20.879Z,22.46
2023-05-21T09:03:20.968Z,22.50
2023-05-21T09:04:21.910Z,22.53
2023-05-21T09:05:20.836Z,22.56
2023-05-21T09:06:20.833Z,22.59
2023-05-21T09:07:20.808Z,22.64
2023-05-21T09:08:20.794Z,22.65
2023-05-21T09:09:20.784Z,22.71
2023-05-21T09:10:20.860Z,22.71
2023-05-21T09:11:20.762Z,22.71
2023-05-21T09:12:20.783Z,22.74
2023-05-21T09:13:20.741Z,22.74
2023-05-21T09:14:20.722Z,22.71
2023-05-21T09:15:20.729Z,22.69
2023-05-21T09:16:20.738Z,22.68
2023-05-21T09:17:20.673Z,22.71
2023-05-21T09:18:20.677Z,22.71
2023-05-21T09:19:20.708Z,22.71
2023-05-21T09:20:20.698Z,22.72
2023-05-21T09:21:20.658Z,22.74
2023-05-21T09:22:20.598Z,22.74
2023-05-21T09:23:20.592Z,22.77
2023-05-21T09:24:20.582Z,22.80
2023-05-21T09:25:20.578Z,22.80
2023-05-21T09:26:20.552Z,22.80
2023-05-21T09:27:20.523Z,22.83
2023-05-21T09:28:20.530Z,22.83
2023-05-21T09:29:20.511Z,22.86
2023-05-21T09:30:35.647Z,22.89
2023-05-21T09:31:21.527Z,22.89
2023-05-21T09:32:20.489Z,22.89
2023-05-21T09:33:20.456Z,22.92
2023-05-21T09:34:20.457Z,22.92
2023-05-21T09:35:20.437Z,22.90
2023-05-21T09:36:20.427Z,22.96
2023-05-21T09:38:21.407Z,23.02
2023-05-21T09:39:20.372Z,23.05
2023-05-21T09:40:20.361Z,23.09
2023-05-21T09:41:22.139Z,23.12
2023-05-21T09:42:20.337Z,23.14
2023-05-21T09:43:20.325Z,23.15
2023-05-21T09:44:20.322Z,23.15
2023-05-21T09:45:20.366Z,23.19
2023-05-21T09:46:20.322Z,23.19
2023-05-21T10:03:09.055Z,23.17
2023-05-21T10:04:09.059Z,23.17
2023-05-21T10:05:08.964Z,23.17
2023-05-21T10:06:08.963Z,23.15
2023-05-21T10:07:08.927Z,23.19
2023-05-21T10:08:08.920Z,23.17
2023-05-21T10:09:08.912Z,23.20
2023-05-21T10:10:08.899Z,23.22
2023-05-21T10:11:08.881Z,23.24
2023-05-21T10:12:08.864Z,23.26
2023-05-21T10:13:08.860Z,23.29
2023-05-21T10:14:08.857Z,23.29
2023-05-21T10:15:08.814Z,23.31
2023-05-21T10:16:08.860Z,23.31
2023-05-21T10:17:08.782Z,23.32
2023-05-21T10:18:08.851Z,23.35
2023-05-21T10:19:08.853Z,23.38
2023-05-21T10:20:08.765Z,23.40
2023-05-21T10:21:08.743Z,23.43
2023-05-21T10:22:08.728Z,23.45
2023-05-21T10:23:08.731Z,23.46
2023-05-21T10:24:08.711Z,23.47
2023-05-21T10:25:08.711Z,23.50
2023-05-21T10:26:08.684Z,23.53
2023-05-21T10:27:08.673Z,23.57
2023-05-21T10:28:08.664Z,23.61
2023-05-21T10:29:08.659Z,23.62
2023-05-21T10:30:08.637Z,23.64
2023-05-21T10:31:08.638Z,23.68
2023-05-21T10:32:08.644Z,23.72
2023-05-21T10:33:08.614Z,23.77
2023-05-21T10:34:08.588Z,23.79
2023-05-21T10:35:08.563Z,23.83
2023-05-21T10:36:08.547Z,23.86
2023-05-21T10:37:08.565Z,23.92
2023-05-21T10:38:08.535Z,23.95
2023-05-21T10:39:08.519Z,24.00
2023-05-21T10:40:08.508Z,24.02
2023-05-21T10:41:08.510Z,24.02
2023-05-21T10:42:08.494Z,24.05
2023-05-21T10:43:08.451Z,24.05
2023-05-21T10:44:08.449Z,24.10
2023-05-21T10:45:08.462Z,24.12
2023-05-21T10:46:08.586Z,24.16
2023-05-21T10:47:08.410Z,24.17
2023-05-21T10:48:08.451Z,24.19
2023-05-21T10:49:08.383Z,24.20
2023-05-21T10:50:08.396Z,24.24
2023-05-21T10:51:08.376Z,24.27
2023-05-21T10:52:08.349Z,24.29
2023-05-21T10:53:10.653Z,24.34
2023-05-21T10:54:08.323Z,24.34
2023-05-21T10:55:08.329Z,24.37
2023-05-21T10:56:08.299Z,24.41
2023-05-21T10:57:08.282Z,24.41
2023-05-21T10:58:08.263Z,24.38
2023-05-21T10:59:08.243Z,24.39
2023-05-21T11:00:08.258Z,24.42
2023-05-21T11:01:08.282Z,24.42
2023-05-21T11:02:08.238Z,24.47
2023-05-21T11:03:08.298Z,24.45
2023-05-21T11:04:08.205Z,24.50
2023-05-21T11:05:08.206Z,24.57
2023-05-21T11:06:08.174Z,24.60
2023-05-21T11:07:08.152Z,24.64
2023-05-21T11:08:08.134Z,24.69
2023-05-21T11:09:08.139Z,24.71
2023-05-21T11:10:08.117Z,24.73
2023-05-21T11:11:08.101Z,24.76
2023-05-21T11:12:08.122Z,24.77
2023-05-21T11:13:08.078Z,24.80
2023-05-21T11:14:08.061Z,24.85
2023-05-21T11:15:08.047Z,24.87
2023-05-21T11:16:08.100Z,24.85
2023-05-21T11:17:08.114Z,24.90
2023-05-21T11:18:08.065Z,24.94
2023-05-21T11:19:08.084Z,24.98
2023-05-21T11:20:08.009Z,25.02
2023-05-21T11:21:07.973Z,25.06
2023-05-21T11:22:07.976Z,25.10
2023-05-21T11:23:07.943Z,25.16
2023-05-21T11:24:07.945Z,25.27
2023-05-21T11:25:07.924Z,25.37
2023-05-21T11:26:07.911Z,25.47
2023-05-21T11:27:07.883Z,25.59
2023-05-21T11:28:07.887Z,25.69
2023-05-21T11:29:07.895Z,25.79
2023-05-21T11:30:07.858Z,25.91
2023-05-21T11:31:07.869Z,26.05
2023-05-21T11:32:07.845Z,26.17
2023-05-21T11:33:07.991Z,26.25
2023-05-21T11:34:07.804Z,26.28
2023-05-21T11:35:07.794Z,26.31
2023-05-21T11:36:07.786Z,26.37
2023-05-21T11:37:07.770Z,26.42
2023-05-21T11:38:07.758Z,26.46
2023-05-21T11:39:07.736Z,26.46
2023-05-21T11:40:07.722Z,26.49
2023-05-21T11:41:07.710Z,26.49
2023-05-21T11:42:07.708Z,26.44
2023-05-21T11:43:07.709Z,26.40
2023-05-21T11:44:07.686Z,26.37
2023-05-21T11:45:07.665Z,26.40
2023-05-21T11:46:07.713Z,26.42
2023-05-21T11:47:07.650Z,26.43
2023-05-21T11:48:07.782Z,26.40
2023-05-21T11:49:07.602Z,26.39
2023-05-21T11:50:07.601Z,26.35
2023-05-21T11:51:07.577Z,26.32
2023-05-21T11:52:07.586Z,26.36
2023-05-21T11:53:07.557Z,26.31
2023-05-21T11:54:07.548Z,26.28
2023-05-21T11:55:07.571Z,26.28
2023-05-21T11:56:07.524Z,26.24
2023-05-21T11:57:07.527Z,26.22
2023-05-21T11:58:07.504Z,26.27
2023-05-21T11:59:07.486Z,26.29
2023-05-21T12:00:07.485Z,26.37
2023-05-21T12:01:07.455Z,26.43
2023-05-21T12:02:07.461Z,26.52
2023-05-21T12:03:07.545Z,26.61
2023-05-21T12:04:07.473Z,26.73
2023-05-21T12:05:07.409Z,26.81
2023-05-21T12:06:07.436Z,26.94
2023-05-21T12:07:07.380Z,27.04
2023-05-21T12:08:07.367Z,27.13
2023-05-21T12:09:07.337Z,27.26
2023-05-21T12:10:07.343Z,27.41
2023-05-21T12:11:07.324Z,27.59
2023-05-21T12:12:07.327Z,27.69
2023-05-21T12:13:07.305Z,27.76
2023-05-21T12:14:07.305Z,27.86
2023-05-21T12:15:07.267Z,27.96
2023-05-21T12:16:07.338Z,28.04
2023-05-21T12:17:07.258Z,28.16
2023-05-21T12:18:07.268Z,28.28
2023-05-21T12:19:07.270Z,28.38
2023-05-21T12:20:07.228Z,28.48
2023-05-21T12:21:07.208Z,28.65
2023-05-21T12:22:07.182Z,28.84
2023-05-21T12:23:07.168Z,28.97
2023-05-21T12:24:07.160Z,28.95
2023-05-21T12:25:07.144Z,29.06
2023-05-21T12:26:07.150Z,29.18
2023-05-21T12:27:07.125Z,29.25
2023-05-21T12:28:07.120Z,29.22
2023-05-21T12:29:07.091Z,29.23
2023-05-21T12:30:07.075Z,29.34
2023-05-21T12:31:07.085Z,29.40
2023-05-21T12:32:07.205Z,29.40
2023-05-21T12:33:07.085Z,29.49
2023-05-21T12:34:07.036Z,29.56
2023-05-21T12:35:07.059Z,29.56
2023-05-21T12:36:07.010Z,29.66
2023-05-21T12:37:06.995Z,29.75
2023-05-21T12:38:06.998Z,29.92
2023-05-21T12:39:07.421Z,30.03
2023-05-21T12:40:06.980Z,30.09
2023-05-21T12:41:06.946Z,30.19
2023-05-21T12:42:07.697Z,30.31
2023-05-21T12:43:06.927Z,30.49
2023-05-21T12:44:06.918Z,30.56
2023-05-21T12:45:06.911Z,30.67
2023-05-21T12:46:06.960Z,30.80
2023-05-21T12:47:06.871Z,30.86
2023-05-21T12:48:06.932Z,30.86
2023-05-21T12:49:06.851Z,30.89
2023-05-21T12:50:06.849Z,30.96
2023-05-21T12:51:06.810Z,31.05
2023-05-21T12:52:06.804Z,31.18
2023-05-21T12:53:06.822Z,31.17
2023-05-21T12:54:06.808Z,31.21
2023-05-21T12:55:09.404Z,31.26
2023-05-21T12:56:06.749Z,31.33
2023-05-21T12:57:06.774Z,31.40
2023-05-21T12:58:06.738Z,31.45
2023-05-21T12:59:06.716Z,31.45
2023-05-21T13:00:06.721Z,31.43
2023-05-21T13:01:06.744Z,31.43
2023-05-21T13:02:06.678Z,31.39
2023-05-21T13:03:07.064Z,31.39
2023-05-21T13:04:06.696Z,31.35
2023-05-21T13:05:06.647Z,31.38
2023-05-21T13:06:06.626Z,31.38
2023-05-21T13:07:06.595Z,31.38
2023-05-21T13:08:06.608Z,31.30
2023-05-21T13:09:06.584Z,31.28
2023-05-21T13:10:06.579Z,31.28
2023-05-21T13:11:06.576Z,31.35
2023-05-21T13:12:06.536Z,31.39
2023-05-21T13:13:06.526Z,31.42
2023-05-21T13:14:06.513Z,31.48
2023-05-21T13:15:06.502Z,31.45
2023-05-21T13:16:06.513Z,31.49
2023-05-21T13:17:06.487Z,31.49
2023-05-21T13:18:06.499Z,31.50
2023-05-21T13:19:06.509Z,31.49
2023-05-21T13:20:06.433Z,31.42
2023-05-21T13:21:06.419Z,31.27